Time;durP1;ratioP1;P1;durP2;ratioP2;P2;SDS_P1;SDS_P2;PMS_P1;PMS_P2;Temp;Humidity;BMP_temperature;BMP_pressure;BME280_temperature;BME280_humidity;BME280_pressure;Samples;Min_cycle;Max_cycle;Signal;HPM_P1;HPM_P2
2022/11/13 00:08:40;;;;;;;16.97;10.83;;;;;;;5.98;100.00;102411.06;20833719;28;20100;-71
2022/11/13 00:19:04;;;;;;;17.85;10.32;;;;;;;5.97;100.00;102404.19;20826773;28;20087;-71
2022/11/13 00:29:26;;;;;;;16.42;9.82;;;;;;;5.95;100.00;102387.88;20817987;28;20049;-71
2022/11/13 00:39:47;;;;;;;16.23;10.00;;;;;;;5.94;100.00;102389.59;20827914;28;20046;-71
2022/11/13 00:50:09;;;;;;;14.87;9.13;;;;;;;5.90;100.00;102387.09;20827794;28;20053;-71
2022/11/13 01:00:31;;;;;;;14.70;9.13;;;;;;;5.91;100.00;102383.63;20823970;28;20106;-71
2022/11/13 01:10:52;;;;;;;15.70;8.80;;;;;;;5.86;100.00;102393.22;20836433;28;20066;-71
2022/11/13 01:21:20;;;;;;;14.50;8.73;;;;;;;5.80;100.00;102375.25;20811691;28;20510;-71
2022/11/13 01:31:42;;;;;;;18.88;8.13;;;;;;;5.76;100.00;102365.81;20808544;28;20115;-71
2022/11/13 01:42:03;;;;;;;10.20;7.43;;;;;;;5.76;100.00;102366.63;20801355;28;20087;-71
2022/11/13 01:52:32;;;;;;;13.17;7.10;;;;;;;5.74;100.00;102333.94;20809673;28;20045;-71
2022/11/13 02:02:53;;;;;;;12.80;7.65;;;;;;;5.70;100.00;102322.81;20810948;28;20503;-71
2022/11/13 02:13:15;;;;;;;13.90;7.67;;;;;;;5.70;100.00;102317.63;20904056;22;20628;-62
2022/11/13 02:24:12;;;;;;;12.75;8.15;;;;;;;5.70;100.00;102311.59;20978321;28;20757;-62
2022/11/13 02:34:35;;;;;;;13.52;8.13;;;;;;;5.67;100.00;102300.47;20975634;28;20052;-62
2022/11/13 02:44:56;;;;;;;13.40;8.47;;;;;;;5.61;100.00;102304.03;20993071;28;20489;-61
2022/11/13 02:55:18;;;;;;;11.83;8.17;;;;;;;5.59;100.00;102295.44;20983754;28;20049;-61
2022/11/13 03:05:39;;;;;;;14.83;8.87;;;;;;;5.57;100.00;102297.22;21000629;28;20044;-65
2022/11/13 03:16:11;;;;;;;10.23;5.60;;;;;;;5.48;100.00;102287.06;21005940;28;20278;-62
2022/11/13 03:26:33;;;;;;;;;;;;;;;5.37;100.00;102278.69;20969851;28;20631;-62
2022/11/13 03:36:54;;;;;;;11.55;7.60;;;;;;;5.27;100.00;102274.56;21003327;28;19954;-62
2022/11/13 03:47:17;;;;;;;14.77;7.80;;;;;;;5.27;100.00;102265.97;20966525;28;20580;-62
2022/11/13 03:57:38;;;;;;;11.60;7.22;;;;;;;5.21;100.00;102259.19;20977233;28;20560;-61
2022/11/13 04:07:59;;;;;;;11.63;7.10;;;;;;;5.15;100.00;102261.88;20981621;28;20522;-61
2022/11/13 04:18:21;;;;;;;12.07;6.67;;;;;;;5.09;100.00;102250.81;20994100;28;20040;-61
2022/11/13 04:28:43;;;;;;;13.53;6.53;;;;;;;5.07;100.00;102235.38;21006000;28;20040;-63
2022/11/13 04:39:04;;;;;;;13.37;6.70;;;;;;;5.00;100.00;102223.44;20977937;28;20282;-63
2022/11/13 04:49:26;;;;;;;13.10;6.65;;;;;;;4.92;100.00;102207.25;21055989;28;20064;-62
2022/11/13 04:59:48;;;;;;;10.90;6.70;;;;;;;4.88;100.00;102202.13;21019475;28;20053;-63
2022/11/13 05:10:09;;;;;;;12.70;6.10;;;;;;;4.86;100.00;102201.34;20983533;28;20102;-63
2022/11/13 05:20:31;;;;;;;12.67;7.07;;;;;;;4.91;100.00;102210.69;20965305;28;20075;-63
2022/11/13 05:30:52;;;;;;;10.53;6.33;;;;;;;4.88;100.00;102208.16;21038000;28;20115;-64
2022/11/13 05:41:17;;;;;;;11.23;7.03;;;;;;;4.80;100.00;102202.28;21032898;28;20097;-63
2022/11/13 05:51:39;;;;;;;10.98;6.68;;;;;;;4.78;100.00;102190.28;20982343;28;20037;-63
2022/11/13 06:02:01;;;;;;;10.85;6.50;;;;;;;4.71;100.00;102168.06;21051530;28;20052;-62
2022/11/13 06:12:23;;;;;;;10.77;6.67;;;;;;;4.66;100.00;102169.88;20993331;28;20040;-63
2022/11/13 06:22:44;;;;;;;14.73;6.63;;;;;;;4.58;100.00;102156.28;21005258;28;20056;-63
2022/11/13 06:33:06;;;;;;;10.43;6.83;;;;;;;4.48;100.00;102153.88;20994267;28;20129;-63
2022/11/13 06:43:28;;;;;;;9.30;6.30;;;;;;;4.42;100.00;102162.59;21006960;28;20040;-63
2022/11/13 06:53:52;;;;;;;;;;;;;;;4.38;100.00;102157.50;20989647;28;20048;-63
2022/11/13 07:04:13;;;;;;;11.75;6.70;;;;;;;4.25;100.00;102156.00;20993854;28;19962;-62
2022/11/13 07:14:35;;;;;;;12.07;7.20;;;;;;;4.33;100.00;102143.84;20968367;28;20282;-61
2022/11/13 07:24:57;;;;;;;14.23;7.57;;;;;;;4.43;100.00;102145.34;20996602;28;20053;-61
2022/11/13 07:35:19;;;;;;;14.57;7.93;;;;;;;4.52;100.00;102137.44;20997594;28;20037;-61
2022/11/13 07:45:40;;;;;;;13.00;8.20;;;;;;;4.60;100.00;102117.50;20960593;28;20033;-61
2022/11/13 07:56:04;;;;;;;25.55;9.75;;;;;;;4.64;100.00;102124.31;20990323;28;20123;-59
2022/11/13 08:06:26;;;;;;;;;;;;;;;4.72;100.00;102137.91;20957427;28;20629;-60
2022/11/13 08:16:48;;;;;;;14.63;8.30;;;;;;;4.78;100.00;102126.59;20957365;28;19967;-61
2022/11/13 08:27:09;;;;;;;12.13;8.20;;;;;;;4.85;100.00;102115.22;20976444;28;20052;-68
2022/11/13 08:37:32;;;;;;;12.47;8.00;;;;;;;4.98;100.00;102116.66;20974213;28;20044;-68
2022/11/13 08:47:53;;;;;;;14.30;8.45;;;;;;;5.00;100.00;102114.06;21035461;28;20059;-67
2022/11/13 08:58:15;;;;;;;16.87;8.93;;;;;;;5.11;100.00;102109.53;21010299;28;20318;-68
2022/11/13 09:08:36;;;;;;;14.17;9.60;;;;;;;5.22;100.00;102102.38;20978409;28;20638;-68
2022/11/13 09:18:58;;;;;;;13.17;9.17;;;;;;;5.40;100.00;102100.22;20955871;28;20056;-68
2022/11/13 09:29:22;;;;;;;14.77;9.20;;;;;;;5.58;100.00;102104.97;21074669;28;20109;-68
2022/11/13 09:39:43;;;;;;;16.33;9.90;;;;;;;5.75;100.00;102097.66;21024522;28;20901;-68
2022/11/13 09:50:18;;;;;;;14.77;9.93;;;;;;;5.88;100.00;102091.31;21007700;28;20047;-69
2022/11/13 10:00:40;;;;;;;15.68;10.82;;;;;;;6.07;100.00;102084.78;20970093;28;20044;-68
2022/11/13 10:11:13;;;;;;;16.25;9.88;;;;;;;6.26;100.00;102080.81;20979095;28;20056;-69
2022/11/13 10:22:04;;;;;;;14.35;9.65;;;;;;;6.46;100.00;102079.38;21060689;28;20048;-68
2022/11/13 10:32:46;;;;;;;15.87;10.73;;;;;;;6.67;100.00;102078.75;21020204;28;20036;-67
2022/11/13 10:43:17;;;;;;;17.27;10.32;;;;;;;6.88;100.00;102083.34;20983513;28;20655;-68
2022/11/13 10:53:41;;;;;;;14.95;9.50;;;;;;;7.09;99.39;102052.44;20983431;28;20130;-67
2022/11/13 11:04:04;;;;;;;16.23;9.75;;;;;;;7.26;99.43;102044.97;20969334;28;20044;-62
2022/11/13 11:14:32;;;;;;;16.33;9.60;;;;;;;7.47;97.72;102028.72;20967630;28;20118;-62
2022/11/13 11:25:04;;;;;;;14.60;9.27;;;;;;;7.63;96.50;102006.56;20994634;28;20044;-68
2022/11/13 11:35:45;;;;;;;14.32;9.23;;;;;;;7.80;95.34;102007.66;20984158;28;20045;-69
2022/11/13 11:46:14;;;;;;;14.70;9.93;;;;;;;7.90;93.93;101998.69;20993416;28;20044;-70
2022/11/13 11:56:43;;;;;;;13.75;9.48;;;;;;;8.08;93.46;101987.63;20963999;28;20049;-69
2022/11/13 12:07:21;;;;;;;17.77;10.40;;;;;;;8.26;93.58;101983.56;20982431;28;20041;-69
2022/11/13 12:18:14;;;;;;;15.38;10.50;;;;;;;8.39;93.01;101966.63;20974789;28;20390;-71
2022/11/13 12:28:49;;;;;;;18.02;9.93;;;;;;;8.52;92.92;101966.09;20998275;28;20526;-70
2022/11/13 12:39:29;;;;;;;13.63;9.07;;;;;;;8.67;91.49;101944.69;21009486;28;20108;-69
2022/11/13 12:49:59;;;;;;;17.27;9.48;;;;;;;8.71;91.03;101934.16;21016053;28;20078;-70
2022/11/13 13:00:29;;;;;;;13.75;8.85;;;;;;;8.80;90.73;101920.78;21009448;28;20040;-69
2022/11/13 13:11:03;;;;;;;13.15;8.32;;;;;;;8.99;90.35;101921.75;20958529;28;20052;-69
2022/11/13 13:21:24;;;;;;;10.55;7.00;;;;;;;9.06;90.71;101906.72;20989021;28;20045;-69
2022/11/13 13:32:14;;;;;;;11.67;6.27;;;;;;;9.15;91.04;101904.59;20982606;28;20490;-70
2022/11/13 13:43:05;;;;;;;9.90;6.38;;;;;;;9.21;90.02;101882.69;20986651;28;20036;-63
2022/11/13 13:53:31;;;;;;;13.50;9.15;;;;;;;9.26;92.99;101871.19;20964806;28;20044;-69
2022/11/13 14:04:12;;;;;;;13.60;9.43;;;;;;;9.24;93.43;101873.00;20967076;28;20102;-70
2022/11/13 14:14:34;;;;;;;16.77;9.73;;;;;;;9.24;93.34;101867.78;20982894;28;20452;-66
2022/11/13 14:25:00;;;;;;;15.50;9.17;;;;;;;9.24;93.75;101862.59;20982531;28;20056;-66
2022/11/13 14:35:24;;;;;;;16.73;8.45;;;;;;;9.23;92.84;101860.88;20966831;28;20049;-70
2022/11/13 14:45:57;;;;;;;13.50;8.60;;;;;;;9.23;93.67;101862.66;20984276;28;20645;-64
2022/11/13 14:56:42;;;;;;;13.10;8.52;;;;;;;9.12;93.74;101847.50;20975118;28;20044;-68
2022/11/13 15:07:21;;;;;;;14.30;8.45;;;;;;;8.91;92.11;101845.78;20971912;28;20056;-69
2022/11/13 15:17:45;;;;;;;12.95;8.57;;;;;;;8.73;92.68;101843.94;20976870;28;20520;-70
2022/11/13 15:28:07;;;;;;;13.07;7.47;;;;;;;8.57;92.50;101846.41;20991937;28;20044;-69
2022/11/13 15:38:29;;;;;;;12.95;7.63;;;;;;;8.38;93.38;101840.22;20962045;28;20045;-68
2022/11/13 15:48:59;;;;;;;9.90;7.43;;;;;;;8.18;94.38;101816.78;20963383;28;20044;-65
2022/11/13 15:59:21;;;;;;;12.27;7.20;;;;;;;8.00;94.86;101817.47;20961634;28;20488;-61
2022/11/13 16:09:43;;;;;;;10.73;7.27;;;;;;;7.74;96.33;101802.00;21060170;28;20084;-62
2022/11/13 16:20:07;;;;;;;13.35;8.18;;;;;;;7.47;97.05;101816.00;21014877;28;20052;-64
2022/11/13 16:30:30;;;;;;;15.32;9.70;;;;;;;7.17;97.45;101817.09;20975887;28;20036;-64
2022/11/13 16:40:51;;;;;;;15.20;9.55;;;;;;;6.91;97.71;101819.75;21054359;28;20060;-63
2022/11/13 16:51:13;;;;;;;15.80;10.33;;;;;;;6.79;98.67;101809.78;21038438;28;20429;-63
2022/11/13 17:01:35;;;;;;;16.25;11.15;;;;;;;6.64;98.32;101799.06;20967756;28;20850;-63
2022/11/13 17:11:56;;;;;;;17.03;11.30;;;;;;;6.40;97.99;101819.75;20952196;28;20502;-62
2022/11/13 17:22:18;;;;;;;22.73;13.07;;;;;;;6.31;99.00;101809.69;20958811;28;20057;-62
2022/11/13 17:32:39;;;;;;;20.57;11.90;;;;;;;6.32;100.00;101804.47;20995107;28;20040;-63
2022/11/13 17:43:01;;;;;;;21.83;12.73;;;;;;;6.38;100.00;101795.66;20987902;28;20450;-62
2022/11/13 17:53:23;;;;;;;23.97;12.60;;;;;;;6.24;100.00;101795.25;20971771;28;20049;-62
2022/11/13 18:03:46;;;;;;;27.13;13.98;;;;;;;6.15;100.00;101790.34;20832816;22;20049;-70
2022/11/13 18:14:07;;;;;;;29.80;15.32;;;;;;;6.19;100.00;101774.66;20827320;28;20053;-70
2022/11/13 18:24:29;;;;;;;32.47;16.03;;;;;;;6.28;100.00;101770.94;20846631;28;20149;-70
2022/11/13 18:34:50;;;;;;;33.70;16.63;;;;;;;6.26;100.00;101750.28;20856713;28;20453;-70
2022/11/13 18:45:15;;;;;;;35.40;17.10;;;;;;;6.35;100.00;101743.97;20853036;28;20057;-71
2022/11/13 18:55:36;;;;;;;33.25;16.48;;;;;;;6.41;100.00;101733.38;20867584;28;20081;-70
2022/11/13 19:05:58;;;;;;;28.90;15.03;;;;;;;6.50;100.00;101735.69;20852218;28;20131;-70
2022/11/13 19:16:23;;;;;;;22.63;13.37;;;;;;;6.54;100.00;101725.16;20860015;28;20048;-71
2022/11/13 19:26:45;;;;;;;24.02;13.52;;;;;;;6.61;100.00;101715.44;20862352;28;20121;-70
2022/11/13 19:37:06;;;;;;;23.57;12.60;;;;;;;6.61;100.00;101713.72;20864906;28;20103;-70
2022/11/13 19:47:28;;;;;;;28.40;13.73;;;;;;;6.68;100.00;101704.81;20854910;28;20734;-71
2022/11/13 19:57:50;;;;;;;20.58;12.23;;;;;;;6.73;100.00;101708.94;20876030;28;20053;-71
2022/11/13 20:08:12;;;;;;;18.87;10.57;;;;;;;6.73;100.00;101695.97;20850925;28;20087;-71
2022/11/13 20:18:34;;;;;;;23.27;11.88;;;;;;;6.78;100.00;101688.03;20841507;28;20045;-71
2022/11/13 20:28:56;;;;;;;22.38;11.68;;;;;;;6.81;100.00;101691.41;20850698;28;20324;-71
2022/11/13 20:39:18;;;;;;;20.57;11.37;;;;;;;6.91;100.00;101690.16;20858072;28;20053;-70
2022/11/13 20:49:39;;;;;;;23.37;12.70;;;;;;;6.93;100.00;101683.19;20867272;28;20049;-70
2022/11/13 21:00:01;;;;;;;27.90;14.13;;;;;;;7.00;100.00;101669.06;20849953;28;20279;-70
2022/11/13 21:10:23;;;;;;;27.65;14.30;;;;;;;7.05;100.00;101640.44;20844415;28;20295;-70
2022/11/13 21:20:45;;;;;;;30.20;15.23;;;;;;;7.10;100.00;101634.16;20878648;28;20041;-71
2022/11/13 21:31:08;;;;;;;;;;;;;;;7.14;100.00;101627.94;20885296;28;20061;-71
2022/11/13 21:41:30;;;;;;;30.73;15.90;;;;;;;7.14;100.00;101614.97;20897497;28;19925;-70
2022/11/13 21:51:52;;;;;;;29.43;17.33;;;;;;;7.16;99.85;101613.19;20895037;28;20051;-70
2022/11/13 22:02:13;;;;;;;34.40;18.97;;;;;;;7.11;99.24;101604.75;20863445;28;20049;-69
2022/11/13 22:12:35;;;;;;;34.50;20.20;;;;;;;7.12;99.54;101595.22;20890034;28;20414;-70
2022/11/13 22:22:56;;;;;;;35.00;18.87;;;;;;;7.15;99.02;101572.59;20864897;28;20041;-69
2022/11/13 22:33:18;;;;;;;32.90;19.70;;;;;;;7.16;99.01;101553.56;20867840;28;20084;-70
2022/11/13 22:43:41;;;;;;;33.73;18.83;;;;;;;7.19;99.26;101545.66;20880053;28;20033;-70
2022/11/13 22:54:08;;;;;;;37.55;18.80;;;;;;;7.27;99.57;101537.56;20870479;28;20137;-70
2022/11/13 23:04:29;;;;;;;32.60;19.58;;;;;;;7.31;99.24;101532.19;20862794;28;20151;-70
2022/11/13 23:14:50;;;;;;;33.87;19.73;;;;;;;7.39;99.63;101522.38;20843364;28;20044;-70
2022/11/13 23:25:12;;;;;;;37.07;20.30;;;;;;;7.45;99.87;101500.53;20864626;28;20038;-70
2022/11/13 23:35:33;;;;;;;35.97;20.30;;;;;;;7.46;100.00;101469.34;20857687;28;20053;-69
2022/11/13 23:45:55;;;;;;;34.43;19.10;;;;;;;7.46;100.00;101464.16;20856381;28;20291;-70
2022/11/13 23:56:17;;;;;;;36.10;20.23;;;;;;;7.47;99.92;101458.06;20841564;28;20095;-69
